sensor_id;sensor_type;location;lat;lon;timestamp;temperature;humidity
68433;DHT22;55412;51.350;17.056;2022-07-25T00:01:50;16.30;65.00
68433;DHT22;55412;51.350;17.056;2022-07-25T00:04:16;16.30;64.70
68433;DHT22;55412;51.350;17.056;2022-07-25T00:06:43;16.30;64.40
68433;DHT22;55412;51.350;17.056;2022-07-25T00:09:09;16.30;65.70
68433;DHT22;55412;51.350;17.056;2022-07-25T00:11:35;16.20;66.30
68433;DHT22;55412;51.350;17.056;2022-07-25T00:14:02;16.20;65.20
68433;DHT22;55412;51.350;17.056;2022-07-25T00:16:28;16.20;65.40
68433;DHT22;55412;51.350;17.056;2022-07-25T00:18:54;16.20;65.80
68433;DHT22;55412;51.350;17.056;2022-07-25T00:21:21;16.20;64.50
68433;DHT22;55412;51.350;17.056;2022-07-25T00:23:47;16.20;64.80
68433;DHT22;55412;51.350;17.056;2022-07-25T00:26:13;16.30;64.90
68433;DHT22;55412;51.350;17.056;2022-07-25T00:28:39;16.30;64.80
68433;DHT22;55412;51.350;17.056;2022-07-25T00:31:05;16.30;64.40
68433;DHT22;55412;51.350;17.056;2022-07-25T00:33:32;16.30;64.00
68433;DHT22;55412;51.350;17.056;2022-07-25T00:35:58;16.30;64.00
68433;DHT22;55412;51.350;17.056;2022-07-25T00:38:24;16.40;64.40
68433;DHT22;55412;51.350;17.056;2022-07-25T00:40:50;16.40;65.60
68433;DHT22;55412;51.350;17.056;2022-07-25T00:43:16;16.40;64.30
68433;DHT22;55412;51.350;17.056;2022-07-25T00:45:42;16.40;64.40
68433;DHT22;55412;51.350;17.056;2022-07-25T00:48:08;16.40;64.20
68433;DHT22;55412;51.350;17.056;2022-07-25T00:50:35;16.50;64.00
68433;DHT22;55412;51.350;17.056;2022-07-25T00:53:01;16.50;64.30
68433;DHT22;55412;51.350;17.056;2022-07-25T00:55:28;16.50;63.90
68433;DHT22;55412;51.350;17.056;2022-07-25T00:57:54;16.60;63.90
68433;DHT22;55412;51.350;17.056;2022-07-25T01:00:20;16.60;63.90
68433;DHT22;55412;51.350;17.056;2022-07-25T01:02:47;16.60;64.60
68433;DHT22;55412;51.350;17.056;2022-07-25T01:05:13;16.60;63.80
68433;DHT22;55412;51.350;17.056;2022-07-25T01:07:39;16.60;63.70
68433;DHT22;55412;51.350;17.056;2022-07-25T01:10:07;16.60;63.90
68433;DHT22;55412;51.350;17.056;2022-07-25T01:12:47;16.70;64.20
68433;DHT22;55412;51.350;17.056;2022-07-25T01:15:16;16.70;63.80
68433;DHT22;55412;51.350;17.056;2022-07-25T01:17:43;16.70;64.10
68433;DHT22;55412;51.350;17.056;2022-07-25T01:20:21;16.70;64.10
68433;DHT22;55412;51.350;17.056;2022-07-25T01:22:48;16.80;64.00
68433;DHT22;55412;51.350;17.056;2022-07-25T01:25:15;16.80;63.80
68433;DHT22;55412;51.350;17.056;2022-07-25T01:27:43;16.80;63.70
68433;DHT22;55412;51.350;17.056;2022-07-25T01:30:11;16.80;63.70
68433;DHT22;55412;51.350;17.056;2022-07-25T01:32:39;16.80;63.70
68433;DHT22;55412;51.350;17.056;2022-07-25T01:35:06;16.80;63.30
68433;DHT22;55412;51.350;17.056;2022-07-25T01:37:34;16.90;62.80
68433;DHT22;55412;51.350;17.056;2022-07-25T01:40:00;16.90;62.90
68433;DHT22;55412;51.350;17.056;2022-07-25T01:42:27;17.00;62.50
68433;DHT22;55412;51.350;17.056;2022-07-25T01:44:53;17.10;62.30
68433;DHT22;55412;51.350;17.056;2022-07-25T01:47:19;17.20;62.00
68433;DHT22;55412;51.350;17.056;2022-07-25T01:49:46;17.20;62.00
68433;DHT22;55412;51.350;17.056;2022-07-25T01:52:13;17.20;62.00
68433;DHT22;55412;51.350;17.056;2022-07-25T01:54:39;17.20;61.60
68433;DHT22;55412;51.350;17.056;2022-07-25T01:57:06;17.30;61.10
68433;DHT22;55412;51.350;17.056;2022-07-25T01:59:36;17.30;60.90
68433;DHT22;55412;51.350;17.056;2022-07-25T02:02:04;17.40;60.80
68433;DHT22;55412;51.350;17.056;2022-07-25T02:04:31;17.40;60.70
68433;DHT22;55412;51.350;17.056;2022-07-25T02:06:58;17.40;60.50
68433;DHT22;55412;51.350;17.056;2022-07-25T02:09:24;17.40;60.40
68433;DHT22;55412;51.350;17.056;2022-07-25T02:11:50;17.40;60.20
68433;DHT22;55412;51.350;17.056;2022-07-25T02:14:16;17.40;60.90
68433;DHT22;55412;51.350;17.056;2022-07-25T02:16:42;17.30;62.20
68433;DHT22;55412;51.350;17.056;2022-07-25T02:19:08;17.20;63.50
68433;DHT22;55412;51.350;17.056;2022-07-25T02:21:34;17.10;64.20
68433;DHT22;55412;51.350;17.056;2022-07-25T02:24:01;17.00;65.10
68433;DHT22;55412;51.350;17.056;2022-07-25T02:26:28;16.90;65.50
68433;DHT22;55412;51.350;17.056;2022-07-25T02:28:54;16.80;65.70
68433;DHT22;55412;51.350;17.056;2022-07-25T02:31:20;16.60;65.60
68433;DHT22;55412;51.350;17.056;2022-07-25T02:33:46;16.40;65.40
68433;DHT22;55412;51.350;17.056;2022-07-25T02:36:12;16.30;65.10
68433;DHT22;55412;51.350;17.056;2022-07-25T02:38:38;16.20;65.30
68433;DHT22;55412;51.350;17.056;2022-07-25T02:41:05;16.20;65.80
68433;DHT22;55412;51.350;17.056;2022-07-25T02:43:31;16.20;67.10
68433;DHT22;55412;51.350;17.056;2022-07-25T02:45:57;16.20;66.80
68433;DHT22;55412;51.350;17.056;2022-07-25T02:48:23;16.10;65.90
68433;DHT22;55412;51.350;17.056;2022-07-25T02:50:49;16.00;65.80
68433;DHT22;55412;51.350;17.056;2022-07-25T02:53:15;15.90;65.50
68433;DHT22;55412;51.350;17.056;2022-07-25T02:55:41;15.90;65.20
68433;DHT22;55412;51.350;17.056;2022-07-25T02:58:07;16.00;64.90
68433;DHT22;55412;51.350;17.056;2022-07-25T03:00:34;16.00;64.90
68433;DHT22;55412;51.350;17.056;2022-07-25T03:03:00;16.00;64.30
68433;DHT22;55412;51.350;17.056;2022-07-25T03:05:26;16.00;64.40
68433;DHT22;55412;51.350;17.056;2022-07-25T03:07:52;16.00;64.10
68433;DHT22;55412;51.350;17.056;2022-07-25T03:10:18;16.00;63.60
68433;DHT22;55412;51.350;17.056;2022-07-25T03:12:44;16.00;63.30
68433;DHT22;55412;51.350;17.056;2022-07-25T03:15:11;16.10;63.20
68433;DHT22;55412;51.350;17.056;2022-07-25T03:17:38;16.10;63.50
68433;DHT22;55412;51.350;17.056;2022-07-25T03:20:06;16.10;63.90
68433;DHT22;55412;51.350;17.056;2022-07-25T03:22:33;16.00;63.90
68433;DHT22;55412;51.350;17.056;2022-07-25T03:24:59;16.10;63.90
68433;DHT22;55412;51.350;17.056;2022-07-25T03:27:26;16.10;63.80
68433;DHT22;55412;51.350;17.056;2022-07-25T03:29:52;16.20;64.30
68433;DHT22;55412;51.350;17.056;2022-07-25T03:32:19;16.30;63.80
68433;DHT22;55412;51.350;17.056;2022-07-25T03:34:45;16.40;62.40
68433;DHT22;55412;51.350;17.056;2022-07-25T03:37:11;16.40;62.20
68433;DHT22;55412;51.350;17.056;2022-07-25T03:39:37;16.50;62.20
68433;DHT22;55412;51.350;17.056;2022-07-25T03:42:03;16.70;61.50
68433;DHT22;55412;51.350;17.056;2022-07-25T03:44:29;16.90;60.30
68433;DHT22;55412;51.350;17.056;2022-07-25T03:46:55;17.10;59.90
68433;DHT22;55412;51.350;17.056;2022-07-25T03:49:21;17.30;61.20
68433;DHT22;55412;51.350;17.056;2022-07-25T03:51:48;17.40;59.50
68433;DHT22;55412;51.350;17.056;2022-07-25T03:54:14;17.60;58.40
68433;DHT22;55412;51.350;17.056;2022-07-25T03:56:45;17.80;58.40
68433;DHT22;55412;51.350;17.056;2022-07-25T03:59:15;18.00;57.90
68433;DHT22;55412;51.350;17.056;2022-07-25T04:01:43;18.20;57.20
68433;DHT22;55412;51.350;17.056;2022-07-25T04:04:10;18.50;57.10
68433;DHT22;55412;51.350;17.056;2022-07-25T04:06:37;18.70;57.30
68433;DHT22;55412;51.350;17.056;2022-07-25T04:09:04;19.00;57.10
68433;DHT22;55412;51.350;17.056;2022-07-25T04:11:31;19.20;55.60
68433;DHT22;55412;51.350;17.056;2022-07-25T04:13:58;19.50;56.00
68433;DHT22;55412;51.350;17.056;2022-07-25T04:16:24;19.70;54.70
68433;DHT22;55412;51.350;17.056;2022-07-25T04:18:51;19.80;54.50
68433;DHT22;55412;51.350;17.056;2022-07-25T04:21:17;20.00;55.90
68433;DHT22;55412;51.350;17.056;2022-07-25T04:23:43;20.20;55.40
68433;DHT22;55412;51.350;17.056;2022-07-25T04:26:09;20.30;55.20
68433;DHT22;55412;51.350;17.056;2022-07-25T04:28:35;20.40;54.30
68433;DHT22;55412;51.350;17.056;2022-07-25T04:31:01;20.50;54.10
68433;DHT22;55412;51.350;17.056;2022-07-25T04:33:27;20.60;53.30
68433;DHT22;55412;51.350;17.056;2022-07-25T04:35:53;20.60;53.40
68433;DHT22;55412;51.350;17.056;2022-07-25T04:38:19;20.80;53.40
68433;DHT22;55412;51.350;17.056;2022-07-25T04:40:45;20.90;53.30
68433;DHT22;55412;51.350;17.056;2022-07-25T04:43:12;21.10;53.30
68433;DHT22;55412;51.350;17.056;2022-07-25T04:45:38;21.20;53.20
68433;DHT22;55412;51.350;17.056;2022-07-25T04:48:04;21.40;51.50
68433;DHT22;55412;51.350;17.056;2022-07-25T04:50:31;21.60;52.00
68433;DHT22;55412;51.350;17.056;2022-07-25T04:52:57;21.70;52.00
68433;DHT22;55412;51.350;17.056;2022-07-25T04:55:24;21.90;51.20
68433;DHT22;55412;51.350;17.056;2022-07-25T04:57:50;22.10;52.50
68433;DHT22;55412;51.350;17.056;2022-07-25T05:00:16;22.20;50.90
68433;DHT22;55412;51.350;17.056;2022-07-25T05:02:43;22.40;50.60
68433;DHT22;55412;51.350;17.056;2022-07-25T05:05:09;22.60;50.90
68433;DHT22;55412;51.350;17.056;2022-07-25T05:07:35;22.70;50.40
68433;DHT22;55412;51.350;17.056;2022-07-25T05:10:02;22.90;49.90
68433;DHT22;55412;51.350;17.056;2022-07-25T05:12:29;23.00;48.70
68433;DHT22;55412;51.350;17.056;2022-07-25T05:14:55;23.20;49.40
68433;DHT22;55412;51.350;17.056;2022-07-25T05:17:21;23.40;50.10
68433;DHT22;55412;51.350;17.056;2022-07-25T05:19:48;23.70;48.40
68433;DHT22;55412;51.350;17.056;2022-07-25T05:22:14;23.90;47.20
68433;DHT22;55412;51.350;17.056;2022-07-25T05:24:40;24.10;46.60
68433;DHT22;55412;51.350;17.056;2022-07-25T05:27:06;24.30;46.00
68433;DHT22;55412;51.350;17.056;2022-07-25T05:29:32;24.60;45.60
68433;DHT22;55412;51.350;17.056;2022-07-25T05:31:58;24.60;45.20
68433;DHT22;55412;51.350;17.056;2022-07-25T05:34:24;24.70;45.50
68433;DHT22;55412;51.350;17.056;2022-07-25T05:36:50;24.70;43.50
68433;DHT22;55412;51.350;17.056;2022-07-25T05:39:16;24.80;44.10
68433;DHT22;55412;51.350;17.056;2022-07-25T05:41:42;25.10;43.50
68433;DHT22;55412;51.350;17.056;2022-07-25T05:44:08;25.20;42.80
68433;DHT22;55412;51.350;17.056;2022-07-25T05:46:35;25.30;42.20
68433;DHT22;55412;51.350;17.056;2022-07-25T05:49:01;25.50;42.70
68433;DHT22;55412;51.350;17.056;2022-07-25T05:51:27;25.70;42.50
68433;DHT22;55412;51.350;17.056;2022-07-25T05:53:53;26.00;41.30
68433;DHT22;55412;51.350;17.056;2022-07-25T05:56:19;26.40;40.60
68433;DHT22;55412;51.350;17.056;2022-07-25T05:58:46;26.70;40.60
68433;DHT22;55412;51.350;17.056;2022-07-25T06:01:13;27.20;38.70
68433;DHT22;55412;51.350;17.056;2022-07-25T06:03:40;28.20;37.70
68433;DHT22;55412;51.350;17.056;2022-07-25T06:06:06;30.70;34.80
68433;DHT22;55412;51.350;17.056;2022-07-25T06:08:34;33.60;31.40
68433;DHT22;55412;51.350;17.056;2022-07-25T06:11:00;36.40;28.20
68433;DHT22;55412;51.350;17.056;2022-07-25T06:13:29;38.50;25.80
68433;DHT22;55412;51.350;17.056;2022-07-25T06:15:55;40.00;24.40
68433;DHT22;55412;51.350;17.056;2022-07-25T06:18:22;41.10;23.40
68433;DHT22;55412;51.350;17.056;2022-07-25T06:20:49;41.90;22.10
68433;DHT22;55412;51.350;17.056;2022-07-25T06:23:16;42.30;22.10
68433;DHT22;55412;51.350;17.056;2022-07-25T06:25:43;43.10;21.60
68433;DHT22;55412;51.350;17.056;2022-07-25T06:28:10;44.10;21.20
68433;DHT22;55412;51.350;17.056;2022-07-25T06:30:36;44.40;20.40
68433;DHT22;55412;51.350;17.056;2022-07-25T06:33:02;45.10;20.10
68433;DHT22;55412;51.350;17.056;2022-07-25T06:35:28;45.20;19.90
68433;DHT22;55412;51.350;17.056;2022-07-25T06:37:54;45.00;19.90
68433;DHT22;55412;51.350;17.056;2022-07-25T06:40:20;44.70;20.50
68433;DHT22;55412;51.350;17.056;2022-07-25T06:42:47;44.60;20.40
68433;DHT22;55412;51.350;17.056;2022-07-25T06:45:13;44.10;20.90
68433;DHT22;55412;51.350;17.056;2022-07-25T06:47:42;44.00;20.80
68433;DHT22;55412;51.350;17.056;2022-07-25T06:50:12;44.20;21.00
68433;DHT22;55412;51.350;17.056;2022-07-25T06:52:40;44.30;21.10
68433;DHT22;55412;51.350;17.056;2022-07-25T06:55:08;43.90;21.30
68433;DHT22;55412;51.350;17.056;2022-07-25T06:57:36;43.30;21.00
68433;DHT22;55412;51.350;17.056;2022-07-25T07:00:05;42.30;22.10
68433;DHT22;55412;51.350;17.056;2022-07-25T07:02:40;41.10;22.60
68433;DHT22;55412;51.350;17.056;2022-07-25T07:05:15;39.90;23.80
68433;DHT22;55412;51.350;17.056;2022-07-25T07:07:41;39.00;25.30
68433;DHT22;55412;51.350;17.056;2022-07-25T07:10:08;38.40;25.00
68433;DHT22;55412;51.350;17.056;2022-07-25T07:12:34;38.00;26.40
68433;DHT22;55412;51.350;17.056;2022-07-25T07:15:00;37.60;26.30
68433;DHT22;55412;51.350;17.056;2022-07-25T07:17:26;37.40;26.20
68433;DHT22;55412;51.350;17.056;2022-07-25T07:19:52;36.80;26.80
68433;DHT22;55412;51.350;17.056;2022-07-25T07:22:18;36.10;27.40
68433;DHT22;55412;51.350;17.056;2022-07-25T07:24:44;35.30;28.00
68433;DHT22;55412;51.350;17.056;2022-07-25T07:27:10;34.70;28.70
68433;DHT22;55412;51.350;17.056;2022-07-25T07:29:36;34.20;29.30
68433;DHT22;55412;51.350;17.056;2022-07-25T07:32:03;33.70;29.90
68433;DHT22;55412;51.350;17.056;2022-07-25T07:34:29;33.60;29.90
68433;DHT22;55412;51.350;17.056;2022-07-25T07:36:55;33.70;30.40
68433;DHT22;55412;51.350;17.056;2022-07-25T07:39:21;33.70;30.30
68433;DHT22;55412;51.350;17.056;2022-07-25T07:41:47;33.70;30.10
68433;DHT22;55412;51.350;17.056;2022-07-25T07:44:13;33.80;31.20
68433;DHT22;55412;51.350;17.056;2022-07-25T07:46:39;33.90;30.20
68433;DHT22;55412;51.350;17.056;2022-07-25T07:49:05;33.70;30.50
68433;DHT22;55412;51.350;17.056;2022-07-25T07:51:31;33.50;30.20
68433;DHT22;55412;51.350;17.056;2022-07-25T07:53:58;33.10;30.70
68433;DHT22;55412;51.350;17.056;2022-07-25T07:56:42;33.00;29.70
68433;DHT22;55412;51.350;17.056;2022-07-25T07:59:10;32.70;30.70
68433;DHT22;55412;51.350;17.056;2022-07-25T08:01:36;32.70;31.20
68433;DHT22;55412;51.350;17.056;2022-07-25T08:04:03;32.80;31.70
68433;DHT22;55412;51.350;17.056;2022-07-25T08:06:30;32.90;31.80
68433;DHT22;55412;51.350;17.056;2022-07-25T08:08:56;32.90;31.00
68433;DHT22;55412;51.350;17.056;2022-07-25T08:11:22;32.80;30.10
68433;DHT22;55412;51.350;17.056;2022-07-25T08:13:48;32.50;30.60
68433;DHT22;55412;51.350;17.056;2022-07-25T08:16:14;32.30;31.30
68433;DHT22;55412;51.350;17.056;2022-07-25T08:18:40;32.10;31.00
68433;DHT22;55412;51.350;17.056;2022-07-25T08:21:06;32.00;29.90
68433;DHT22;55412;51.350;17.056;2022-07-25T08:23:33;32.00;31.80
68433;DHT22;55412;51.350;17.056;2022-07-25T08:26:00;32.00;30.50
68433;DHT22;55412;51.350;17.056;2022-07-25T08:28:27;31.80;31.20
68433;DHT22;55412;51.350;17.056;2022-07-25T08:30:53;31.70;32.00
68433;DHT22;55412;51.350;17.056;2022-07-25T08:33:19;31.80;31.40
68433;DHT22;55412;51.350;17.056;2022-07-25T08:35:50;31.70;33.20
68433;DHT22;55412;51.350;17.056;2022-07-25T08:38:19;31.80;32.60
68433;DHT22;55412;51.350;17.056;2022-07-25T08:40:45;31.70;31.50
68433;DHT22;55412;51.350;17.056;2022-07-25T08:43:13;31.70;31.70
68433;DHT22;55412;51.350;17.056;2022-07-25T08:45:52;31.70;31.10
68433;DHT22;55412;51.350;17.056;2022-07-25T08:48:21;31.70;29.60
68433;DHT22;55412;51.350;17.056;2022-07-25T08:50:50;31.40;30.20
68433;DHT22;55412;51.350;17.056;2022-07-25T08:53:18;30.90;30.70
68433;DHT22;55412;51.350;17.056;2022-07-25T08:55:46;30.70;31.40
68433;DHT22;55412;51.350;17.056;2022-07-25T08:58:17;30.50;32.20
68433;DHT22;55412;51.350;17.056;2022-07-25T09:00:43;30.40;31.40
68433;DHT22;55412;51.350;17.056;2022-07-25T09:03:10;30.40;31.20
68433;DHT22;55412;51.350;17.056;2022-07-25T09:05:37;30.50;31.30
68433;DHT22;55412;51.350;17.056;2022-07-25T09:08:12;30.50;31.90
68433;DHT22;55412;51.350;17.056;2022-07-25T09:10:44;30.50;31.90
68433;DHT22;55412;51.350;17.056;2022-07-25T09:13:20;30.50;32.90
68433;DHT22;55412;51.350;17.056;2022-07-25T09:15:52;30.50;31.90
68433;DHT22;55412;51.350;17.056;2022-07-25T09:18:25;30.40;31.00
68433;DHT22;55412;51.350;17.056;2022-07-25T09:20:55;30.20;31.90
68433;DHT22;55412;51.350;17.056;2022-07-25T09:23:28;30.10;33.20
68433;DHT22;55412;51.350;17.056;2022-07-25T09:26:07;30.20;32.10
68433;DHT22;55412;51.350;17.056;2022-07-25T09:31:09;30.20;31.80
68433;DHT22;55412;51.350;17.056;2022-07-25T09:33:52;30.20;34.40
68433;DHT22;55412;51.350;17.056;2022-07-25T09:36:21;30.20;33.90
68433;DHT22;55412;51.350;17.056;2022-07-25T09:38:56;30.30;32.60
68433;DHT22;55412;51.350;17.056;2022-07-25T09:41:38;30.20;33.70
68433;DHT22;55412;51.350;17.056;2022-07-25T09:44:25;30.10;32.40
68433;DHT22;55412;51.350;17.056;2022-07-25T09:47:08;30.20;34.30
68433;DHT22;55412;51.350;17.056;2022-07-25T09:49:41;30.10;32.50
68433;DHT22;55412;51.350;17.056;2022-07-25T09:52:10;30.00;32.70
68433;DHT22;55412;51.350;17.056;2022-07-25T09:54:38;30.10;33.70
68433;DHT22;55412;51.350;17.056;2022-07-25T09:57:05;30.20;33.40
68433;DHT22;55412;51.350;17.056;2022-07-25T09:59:35;30.10;33.30
68433;DHT22;55412;51.350;17.056;2022-07-25T10:02:08;29.90;33.60
68433;DHT22;55412;51.350;17.056;2022-07-25T10:07:14;30.00;32.60
68433;DHT22;55412;51.350;17.056;2022-07-25T10:09:46;30.00;32.30
68433;DHT22;55412;51.350;17.056;2022-07-25T10:12:17;30.00;33.70
68433;DHT22;55412;51.350;17.056;2022-07-25T10:15:03;30.10;33.40
68433;DHT22;55412;51.350;17.056;2022-07-25T10:17:38;30.10;33.10
68433;DHT22;55412;51.350;17.056;2022-07-25T10:20:07;30.20;33.20
68433;DHT22;55412;51.350;17.056;2022-07-25T10:22:36;30.30;33.40
68433;DHT22;55412;51.350;17.056;2022-07-25T10:25:13;30.30;32.60
68433;DHT22;55412;51.350;17.056;2022-07-25T10:27:46;30.30;33.00
68433;DHT22;55412;51.350;17.056;2022-07-25T10:30:21;30.20;31.90
68433;DHT22;55412;51.350;17.056;2022-07-25T10:32:58;30.10;32.40
68433;DHT22;55412;51.350;17.056;2022-07-25T10:35:29;30.00;31.10
68433;DHT22;55412;51.350;17.056;2022-07-25T10:37:57;30.00;32.90
68433;DHT22;55412;51.350;17.056;2022-07-25T10:40:31;30.10;32.70
68433;DHT22;55412;51.350;17.056;2022-07-25T10:43:13;30.20;32.70
68433;DHT22;55412;51.350;17.056;2022-07-25T10:45:57;30.20;33.00
68433;DHT22;55412;51.350;17.056;2022-07-25T10:48:31;30.20;32.00
68433;DHT22;55412;51.350;17.056;2022-07-25T10:50:58;30.30;32.70
68433;DHT22;55412;51.350;17.056;2022-07-25T10:53:30;30.30;33.80
68433;DHT22;55412;51.350;17.056;2022-07-25T10:56:07;30.30;32.20
68433;DHT22;55412;51.350;17.056;2022-07-25T10:58:49;30.40;31.30
68433;DHT22;55412;51.350;17.056;2022-07-25T11:01:23;30.50;32.70
68433;DHT22;55412;51.350;17.056;2022-07-25T11:04:03;30.60;31.10
68433;DHT22;55412;51.350;17.056;2022-07-25T11:06:35;30.70;33.10
68433;DHT22;55412;51.350;17.056;2022-07-25T11:09:13;30.90;33.60
68433;DHT22;55412;51.350;17.056;2022-07-25T11:11:48;30.90;31.70
68433;DHT22;55412;51.350;17.056;2022-07-25T11:14:24;30.90;31.50
68433;DHT22;55412;51.350;17.056;2022-07-25T11:16:52;30.80;31.80
68433;DHT22;55412;51.350;17.056;2022-07-25T11:19:28;30.80;33.70
68433;DHT22;55412;51.350;17.056;2022-07-25T11:21:57;30.90;32.40
68433;DHT22;55412;51.350;17.056;2022-07-25T11:24:44;30.80;31.40
68433;DHT22;55412;51.350;17.056;2022-07-25T11:27:31;30.90;31.90
68433;DHT22;55412;51.350;17.056;2022-07-25T11:30:11;31.00;31.30
68433;DHT22;55412;51.350;17.056;2022-07-25T11:32:44;31.10;32.00
68433;DHT22;55412;51.350;17.056;2022-07-25T11:35:26;31.10;32.00
68433;DHT22;55412;51.350;17.056;2022-07-25T11:37:54;31.20;31.90
68433;DHT22;55412;51.350;17.056;2022-07-25T11:40:21;31.20;31.10
68433;DHT22;55412;51.350;17.056;2022-07-25T11:42:50;31.20;31.20
68433;DHT22;55412;51.350;17.056;2022-07-25T11:45:22;31.20;32.00
68433;DHT22;55412;51.350;17.056;2022-07-25T11:48:06;31.10;32.00
68433;DHT22;55412;51.350;17.056;2022-07-25T11:50:37;31.10;30.70
68433;DHT22;55412;51.350;17.056;2022-07-25T11:53:08;31.10;31.00
68433;DHT22;55412;51.350;17.056;2022-07-25T11:55:37;31.20;32.00
68433;DHT22;55412;51.350;17.056;2022-07-25T11:58:12;31.10;32.30
68433;DHT22;55412;51.350;17.056;2022-07-25T12:00:44;31.20;32.10
68433;DHT22;55412;51.350;17.056;2022-07-25T12:03:13;31.20;31.50
68433;DHT22;55412;51.350;17.056;2022-07-25T12:05:40;31.30;30.50
68433;DHT22;55412;51.350;17.056;2022-07-25T12:10:36;31.20;31.40
68433;DHT22;55412;51.350;17.056;2022-07-25T12:13:03;31.30;32.00
68433;DHT22;55412;51.350;17.056;2022-07-25T12:15:40;31.40;31.20
68433;DHT22;55412;51.350;17.056;2022-07-25T12:18:08;31.40;30.80
68433;DHT22;55412;51.350;17.056;2022-07-25T12:20:38;31.40;31.80
68433;DHT22;55412;51.350;17.056;2022-07-25T12:23:09;31.50;31.50
68433;DHT22;55412;51.350;17.056;2022-07-25T12:25:45;31.50;31.70
68433;DHT22;55412;51.350;17.056;2022-07-25T12:28:12;31.40;31.90
68433;DHT22;55412;51.350;17.056;2022-07-25T12:30:41;31.50;31.80
68433;DHT22;55412;51.350;17.056;2022-07-25T12:33:08;31.50;30.90
68433;DHT22;55412;51.350;17.056;2022-07-25T12:35:35;31.40;32.40
68433;DHT22;55412;51.350;17.056;2022-07-25T12:38:02;31.50;30.30
68433;DHT22;55412;51.350;17.056;2022-07-25T12:40:29;31.60;31.60
68433;DHT22;55412;51.350;17.056;2022-07-25T12:42:55;31.60;30.00
68433;DHT22;55412;51.350;17.056;2022-07-25T12:45:22;31.70;32.10
68433;DHT22;55412;51.350;17.056;2022-07-25T12:47:49;31.70;31.80
68433;DHT22;55412;51.350;17.056;2022-07-25T12:50:15;31.80;32.30
68433;DHT22;55412;51.350;17.056;2022-07-25T12:52:45;31.90;31.20
68433;DHT22;55412;51.350;17.056;2022-07-25T12:55:14;31.90;31.30
68433;DHT22;55412;51.350;17.056;2022-07-25T12:57:41;31.90;30.80
68433;DHT22;55412;51.350;17.056;2022-07-25T13:00:12;31.80;32.10
68433;DHT22;55412;51.350;17.056;2022-07-25T13:02:40;31.90;30.60
68433;DHT22;55412;51.350;17.056;2022-07-25T13:05:06;31.90;32.60
68433;DHT22;55412;51.350;17.056;2022-07-25T13:07:33;32.00;31.60
68433;DHT22;55412;51.350;17.056;2022-07-25T13:10:00;32.10;30.80
68433;DHT22;55412;51.350;17.056;2022-07-25T13:12:28;32.20;30.70
68433;DHT22;55412;51.350;17.056;2022-07-25T13:14:55;32.40;31.50
68433;DHT22;55412;51.350;17.056;2022-07-25T13:17:21;32.40;31.30
68433;DHT22;55412;51.350;17.056;2022-07-25T13:19:47;32.30;30.50
68433;DHT22;55412;51.350;17.056;2022-07-25T13:22:13;32.20;30.90
68433;DHT22;55412;51.350;17.056;2022-07-25T13:24:39;32.10;31.20
68433;DHT22;55412;51.350;17.056;2022-07-25T13:27:06;32.10;31.50
68433;DHT22;55412;51.350;17.056;2022-07-25T13:29:33;32.20;30.20
68433;DHT22;55412;51.350;17.056;2022-07-25T13:32:00;32.10;31.20
68433;DHT22;55412;51.350;17.056;2022-07-25T13:34:26;32.20;30.60
68433;DHT22;55412;51.350;17.056;2022-07-25T13:36:52;32.20;32.20
68433;DHT22;55412;51.350;17.056;2022-07-25T13:39:18;32.20;32.20
68433;DHT22;55412;51.350;17.056;2022-07-25T13:41:47;32.40;31.20
68433;DHT22;55412;51.350;17.056;2022-07-25T13:44:14;32.40;30.80
68433;DHT22;55412;51.350;17.056;2022-07-25T13:46:41;32.30;31.70
68433;DHT22;55412;51.350;17.056;2022-07-25T13:49:07;32.30;30.80
68433;DHT22;55412;51.350;17.056;2022-07-25T13:51:33;32.40;30.90
68433;DHT22;55412;51.350;17.056;2022-07-25T13:53:59;32.40;30.60
68433;DHT22;55412;51.350;17.056;2022-07-25T13:56:25;32.40;29.90
68433;DHT22;55412;51.350;17.056;2022-07-25T13:58:51;32.40;31.50
68433;DHT22;55412;51.350;17.056;2022-07-25T14:01:17;32.50;31.30
68433;DHT22;55412;51.350;17.056;2022-07-25T14:03:43;32.70;30.80
68433;DHT22;55412;51.350;17.056;2022-07-25T14:06:09;32.80;32.40
68433;DHT22;55412;51.350;17.056;2022-07-25T14:08:38;32.70;30.80
68433;DHT22;55412;51.350;17.056;2022-07-25T14:11:06;32.60;30.00
68433;DHT22;55412;51.350;17.056;2022-07-25T14:13:33;32.50;31.30
68433;DHT22;55412;51.350;17.056;2022-07-25T14:16:00;32.50;29.50
68433;DHT22;55412;51.350;17.056;2022-07-25T14:18:27;32.40;30.60
68433;DHT22;55412;51.350;17.056;2022-07-25T14:20:56;32.40;30.80
68433;DHT22;55412;51.350;17.056;2022-07-25T14:23:23;32.50;31.50
68433;DHT22;55412;51.350;17.056;2022-07-25T14:25:49;32.60;31.00
68433;DHT22;55412;51.350;17.056;2022-07-25T14:28:15;32.50;31.00
68433;DHT22;55412;51.350;17.056;2022-07-25T14:30:41;32.40;30.70
68433;DHT22;55412;51.350;17.056;2022-07-25T14:33:07;32.50;32.70
68433;DHT22;55412;51.350;17.056;2022-07-25T14:35:34;32.50;30.70
68433;DHT22;55412;51.350;17.056;2022-07-25T14:38:00;32.50;29.90
68433;DHT22;55412;51.350;17.056;2022-07-25T14:40:26;32.50;29.80
68433;DHT22;55412;51.350;17.056;2022-07-25T14:42:53;32.50;32.00
68433;DHT22;55412;51.350;17.056;2022-07-25T14:45:19;32.40;31.00
68433;DHT22;55412;51.350;17.056;2022-07-25T14:47:46;32.40;31.30
68433;DHT22;55412;51.350;17.056;2022-07-25T14:50:12;32.40;31.30
68433;DHT22;55412;51.350;17.056;2022-07-25T14:52:38;32.40;30.40
68433;DHT22;55412;51.350;17.056;2022-07-25T14:55:05;32.30;30.50
68433;DHT22;55412;51.350;17.056;2022-07-25T14:57:32;32.30;30.30
68433;DHT22;55412;51.350;17.056;2022-07-25T14:59:58;32.30;29.90
68433;DHT22;55412;51.350;17.056;2022-07-25T15:02:26;32.30;29.80
68433;DHT22;55412;51.350;17.056;2022-07-25T15:04:53;32.30;30.60
68433;DHT22;55412;51.350;17.056;2022-07-25T15:07:19;32.30;30.70
68433;DHT22;55412;51.350;17.056;2022-07-25T15:09:45;32.30;30.70
68433;DHT22;55412;51.350;17.056;2022-07-25T15:12:11;32.30;30.90
68433;DHT22;55412;51.350;17.056;2022-07-25T15:14:39;32.20;30.90
68433;DHT22;55412;51.350;17.056;2022-07-25T15:17:07;32.20;30.80
68433;DHT22;55412;51.350;17.056;2022-07-25T15:19:33;32.20;30.00
68433;DHT22;55412;51.350;17.056;2022-07-25T15:21:59;32.20;31.40
68433;DHT22;55412;51.350;17.056;2022-07-25T15:24:26;32.30;29.80
68433;DHT22;55412;51.350;17.056;2022-07-25T15:26:52;32.30;31.30
68433;DHT22;55412;51.350;17.056;2022-07-25T15:29:18;32.30;30.20